sensor_id;sensor_type;location;lat;lon;timestamp;pressure;altitude;pressure_sealevel;temperature;humidity
70458;BME280;57919;56.194;95.716;2023-08-08T00:08:15;98050.88;;;19.82;76.82
70458;BME280;57919;56.194;95.716;2023-08-08T00:18:18;98051.69;;;22.14;68.78
70458;BME280;57919;56.194;95.716;2023-08-08T00:28:19;98050.97;;;22.53;66.41
70458;BME280;57919;56.194;95.716;2023-08-08T00:38:21;98051.31;;;23.89;62.12
70458;BME280;57919;56.194;95.716;2023-08-08T00:48:23;98043.22;;;25.54;56.94
70458;BME280;57919;56.194;95.716;2023-08-08T00:58:26;98052.25;;;24.11;60.79
70458;BME280;57919;56.194;95.716;2023-08-08T01:08:34;98059.38;;;22.82;63.40
70458;BME280;57919;56.194;95.716;2023-08-08T01:18:37;98064.50;;;22.78;63.71
70458;BME280;57919;56.194;95.716;2023-08-08T01:28:42;98072.31;;;22.58;64.25
70458;BME280;57919;56.194;95.716;2023-08-08T01:38:46;98083.81;;;22.90;63.39
70458;BME280;57919;56.194;95.716;2023-08-08T01:48:49;98088.34;;;23.08;63.60
70458;BME280;57919;56.194;95.716;2023-08-08T01:58:51;98076.28;;;24.78;59.62
70458;BME280;57919;56.194;95.716;2023-08-08T02:08:53;98084.50;;;25.55;56.22
70458;BME280;57919;56.194;95.716;2023-08-08T02:18:56;98087.06;;;25.62;56.10
70458;BME280;57919;56.194;95.716;2023-08-08T02:28:58;98091.44;;;26.33;54.53
70458;BME280;57919;56.194;95.716;2023-08-08T02:38:59;98093.41;;;27.70;50.66
70458;BME280;57919;56.194;95.716;2023-08-08T02:49:01;98098.22;;;28.81;48.56
70458;BME280;57919;56.194;95.716;2023-08-08T02:59:03;98101.88;;;28.66;48.38
70458;BME280;57919;56.194;95.716;2023-08-08T03:09:06;98098.59;;;30.13;44.98
70458;BME280;57919;56.194;95.716;2023-08-08T03:19:09;98115.31;;;31.44;42.09
70458;BME280;57919;56.194;95.716;2023-08-08T03:29:13;98113.56;;;32.53;39.74
70458;BME280;57919;56.194;95.716;2023-08-08T03:39:19;98115.44;;;32.20;39.61
70458;BME280;57919;56.194;95.716;2023-08-08T03:49:21;98111.56;;;33.18;37.75
70458;BME280;57919;56.194;95.716;2023-08-08T03:59:23;98106.22;;;32.00;37.30
70458;BME280;57919;56.194;95.716;2023-08-08T04:09:26;98102.03;;;31.55;39.06
70458;BME280;57919;56.194;95.716;2023-08-08T04:19:28;98104.56;;;32.37;37.72
70458;BME280;57919;56.194;95.716;2023-08-08T04:29:30;98099.44;;;31.16;39.04
70458;BME280;57919;56.194;95.716;2023-08-08T04:39:32;98078.75;;;32.40;37.76
70458;BME280;57919;56.194;95.716;2023-08-08T04:49:34;98094.31;;;32.97;36.13
70458;BME280;57919;56.194;95.716;2023-08-08T04:59:35;98092.34;;;33.12;34.03
70458;BME280;57919;56.194;95.716;2023-08-08T05:09:37;98087.47;;;33.03;34.14
70458;BME280;57919;56.194;95.716;2023-08-08T05:19:39;98083.84;;;33.17;32.83
70458;BME280;57919;56.194;95.716;2023-08-08T05:29:41;98090.72;;;33.65;31.06
70458;BME280;57919;56.194;95.716;2023-08-08T05:39:44;98081.25;;;33.06;30.62
70458;BME280;57919;56.194;95.716;2023-08-08T05:49:46;98062.03;;;32.67;31.33
70458;BME280;57919;56.194;95.716;2023-08-08T05:59:48;98077.63;;;32.03;31.24
70458;BME280;57919;56.194;95.716;2023-08-08T06:09:50;98075.59;;;31.66;32.16
70458;BME280;57919;56.194;95.716;2023-08-08T06:19:52;98076.28;;;31.58;30.91
70458;BME280;57919;56.194;95.716;2023-08-08T06:29:55;98072.03;;;30.55;33.03
70458;BME280;57919;56.194;95.716;2023-08-08T06:39:57;98062.00;;;31.36;32.59
70458;BME280;57919;56.194;95.716;2023-08-08T06:50:00;98066.31;;;31.28;33.54
70458;BME280;57919;56.194;95.716;2023-08-08T07:00:02;98068.69;;;31.40;33.20
70458;BME280;57919;56.194;95.716;2023-08-08T07:10:08;98070.28;;;31.70;33.50
70458;BME280;57919;56.194;95.716;2023-08-08T07:20:11;98063.56;;;31.90;34.19
70458;BME280;57919;56.194;95.716;2023-08-08T07:30:15;98053.22;;;31.24;34.76
70458;BME280;57919;56.194;95.716;2023-08-08T07:40:18;98053.13;;;31.05;34.90
70458;BME280;57919;56.194;95.716;2023-08-08T07:50:21;98050.63;;;31.03;34.61
70458;BME280;57919;56.194;95.716;2023-08-08T08:00:23;98048.91;;;31.55;33.77
70458;BME280;57919;56.194;95.716;2023-08-08T08:10:25;98055.63;;;31.97;33.01
70458;BME280;57919;56.194;95.716;2023-08-08T08:20:28;98063.22;;;31.30;33.60
70458;BME280;57919;56.194;95.716;2023-08-08T08:30:29;98057.28;;;31.07;34.56
70458;BME280;57919;56.194;95.716;2023-08-08T08:40:37;98064.97;;;30.68;35.84
70458;BME280;57919;56.194;95.716;2023-08-08T08:50:39;98054.94;;;29.88;36.82
70458;BME280;57919;56.194;95.716;2023-08-08T09:00:44;98049.97;;;29.80;37.40
70458;BME280;57919;56.194;95.716;2023-08-08T09:10:47;98059.09;;;29.37;38.00
70458;BME280;57919;56.194;95.716;2023-08-08T09:20:49;98063.09;;;29.10;38.36
70458;BME280;57919;56.194;95.716;2023-08-08T09:30:51;98066.78;;;28.85;39.71
70458;BME280;57919;56.194;95.716;2023-08-08T09:40:55;98060.97;;;28.36;40.29
70458;BME280;57919;56.194;95.716;2023-08-08T09:51:01;98063.22;;;28.29;40.90
70458;BME280;57919;56.194;95.716;2023-08-08T10:01:03;98061.25;;;28.35;41.13
70458;BME280;57919;56.194;95.716;2023-08-08T10:11:06;98049.81;;;28.01;40.75
70458;BME280;57919;56.194;95.716;2023-08-08T10:21:12;98052.31;;;28.02;41.34
70458;BME280;57919;56.194;95.716;2023-08-08T10:31:19;98055.88;;;27.67;42.15
70458;BME280;57919;56.194;95.716;2023-08-08T10:41:22;98047.94;;;27.28;43.54
70458;BME280;57919;56.194;95.716;2023-08-08T10:51:40;98049.22;;;27.06;43.67
70458;BME280;57919;56.194;95.716;2023-08-08T11:01:48;98052.28;;;27.04;44.21
70458;BME280;57919;56.194;95.716;2023-08-08T11:11:50;98055.84;;;26.99;43.71
70458;BME280;57919;56.194;95.716;2023-08-08T11:21:53;98054.59;;;26.80;44.51
70458;BME280;57919;56.194;95.716;2023-08-08T11:31:56;98047.84;;;26.66;45.55
70458;BME280;57919;56.194;95.716;2023-08-08T11:41:58;98053.88;;;26.53;46.24
70458;BME280;57919;56.194;95.716;2023-08-08T11:52:00;98060.59;;;26.30;46.10
70458;BME280;57919;56.194;95.716;2023-08-08T12:02:02;98060.78;;;26.18;46.75
70458;BME280;57919;56.194;95.716;2023-08-08T12:12:04;98066.72;;;26.00;47.23
70458;BME280;57919;56.194;95.716;2023-08-08T12:22:07;98056.78;;;25.77;48.31
70458;BME280;57919;56.194;95.716;2023-08-08T12:32:08;98063.44;;;25.54;48.88
70458;BME280;57919;56.194;95.716;2023-08-08T12:42:10;98071.00;;;25.37;49.67
70458;BME280;57919;56.194;95.716;2023-08-08T12:52:13;98079.25;;;25.10;50.86
70458;BME280;57919;56.194;95.716;2023-08-08T13:02:15;98096.47;;;24.78;51.97
70458;BME280;57919;56.194;95.716;2023-08-08T13:12:17;98096.34;;;24.35;53.73
70458;BME280;57919;56.194;95.716;2023-08-08T13:22:19;98093.38;;;24.08;54.40
70458;BME280;57919;56.194;95.716;2023-08-08T13:32:21;98101.75;;;23.68;55.86
70458;BME280;57919;56.194;95.716;2023-08-08T13:42:23;98112.50;;;23.41;56.33
70458;BME280;57919;56.194;95.716;2023-08-08T13:52:25;98129.47;;;23.21;56.84
70458;BME280;57919;56.194;95.716;2023-08-08T14:02:27;98131.91;;;22.82;57.88
70458;BME280;57919;56.194;95.716;2023-08-08T14:12:29;98128.66;;;22.50;58.63
70458;BME280;57919;56.194;95.716;2023-08-08T14:22:33;98131.88;;;22.36;58.88
70458;BME280;57919;56.194;95.716;2023-08-08T14:32:35;98127.31;;;22.00;60.00
70458;BME280;57919;56.194;95.716;2023-08-08T14:42:37;98140.78;;;21.78;60.43
70458;BME280;57919;56.194;95.716;2023-08-08T14:52:39;98156.81;;;21.51;60.74
70458;BME280;57919;56.194;95.716;2023-08-08T15:02:41;98152.13;;;21.15;62.32
70458;BME280;57919;56.194;95.716;2023-08-08T15:12:43;98147.44;;;20.79;63.02
70458;BME280;57919;56.194;95.716;2023-08-08T15:22:45;98160.38;;;20.53;63.89
70458;BME280;57919;56.194;95.716;2023-08-08T15:32:47;98148.28;;;20.29;64.85
70458;BME280;57919;56.194;95.716;2023-08-08T15:42:49;98146.97;;;20.07;65.38
70458;BME280;57919;56.194;95.716;2023-08-08T15:52:51;98135.06;;;19.88;65.78
70458;BME280;57919;56.194;95.716;2023-08-08T16:02:56;98135.63;;;19.65;66.69
70458;BME280;57919;56.194;95.716;2023-08-08T16:12:59;98139.06;;;19.48;67.22
70458;BME280;57919;56.194;95.716;2023-08-08T16:23:01;98145.09;;;19.25;68.13
70458;BME280;57919;56.194;95.716;2023-08-08T16:33:03;98153.56;;;19.10;69.23
70458;BME280;57919;56.194;95.716;2023-08-08T16:43:05;98165.81;;;19.08;69.14
70458;BME280;57919;56.194;95.716;2023-08-08T16:53:08;98172.59;;;18.98;69.80
70458;BME280;57919;56.194;95.716;2023-08-08T17:03:11;98155.75;;;18.88;70.16
70458;BME280;57919;56.194;95.716;2023-08-08T17:13:14;98149.25;;;18.76;70.45
70458;BME280;57919;56.194;95.716;2023-08-08T17:23:16;98145.25;;;18.65;71.42
70458;BME280;57919;56.194;95.716;2023-08-08T17:33:18;98151.13;;;18.56;71.58
70458;BME280;57919;56.194;95.716;2023-08-08T17:43:20;98134.50;;;18.44;72.27
70458;BME280;57919;56.194;95.716;2023-08-08T17:53:22;98131.13;;;18.49;72.11
70458;BME280;57919;56.194;95.716;2023-08-08T18:03:24;98131.97;;;18.43;72.37
70458;BME280;57919;56.194;95.716;2023-08-08T18:13:26;98127.97;;;18.32;72.39
70458;BME280;57919;56.194;95.716;2023-08-08T18:23:28;98112.38;;;17.99;73.17
70458;BME280;57919;56.194;95.716;2023-08-08T18:33:30;98112.38;;;17.86;73.20
70458;BME280;57919;56.194;95.716;2023-08-08T18:43:32;98101.00;;;17.69;73.52
70458;BME280;57919;56.194;95.716;2023-08-08T18:53:34;98105.97;;;17.46;73.83
70458;BME280;57919;56.194;95.716;2023-08-08T19:03:38;98105.50;;;17.29;74.40
70458;BME280;57919;56.194;95.716;2023-08-08T19:13:39;98120.59;;;17.19;74.91
70458;BME280;57919;56.194;95.716;2023-08-08T19:23:41;98106.22;;;17.03;75.12
70458;BME280;57919;56.194;95.716;2023-08-08T19:33:43;98114.19;;;16.98;75.56
70458;BME280;57919;56.194;95.716;2023-08-08T19:43:45;98110.56;;;16.85;75.91
70458;BME280;57919;56.194;95.716;2023-08-08T19:53:47;98105.22;;;16.70;76.13
70458;BME280;57919;56.194;95.716;2023-08-08T20:03:50;98116.25;;;16.55;76.48
70458;BME280;57919;56.194;95.716;2023-08-08T20:13:52;98121.81;;;16.40;76.98
70458;BME280;57919;56.194;95.716;2023-08-08T20:23:54;98115.31;;;16.41;77.15
70458;BME280;57919;56.194;95.716;2023-08-08T20:33:56;98113.69;;;16.19;76.91
70458;BME280;57919;56.194;95.716;2023-08-08T20:43:58;98120.38;;;16.17;77.35
70458;BME280;57919;56.194;95.716;2023-08-08T20:54:00;98114.75;;;15.97;78.30
70458;BME280;57919;56.194;95.716;2023-08-08T21:04:02;98116.25;;;15.99;78.10
70458;BME280;57919;56.194;95.716;2023-08-08T21:14:04;98116.50;;;16.04;78.17
70458;BME280;57919;56.194;95.716;2023-08-08T21:24:07;98126.44;;;15.91;78.37
70458;BME280;57919;56.194;95.716;2023-08-08T21:34:08;98126.31;;;15.77;78.14
70458;BME280;57919;56.194;95.716;2023-08-08T21:44:10;98127.03;;;15.65;78.49
70458;BME280;57919;56.194;95.716;2023-08-08T21:54:13;98136.94;;;15.51;78.56
70458;BME280;57919;56.194;95.716;2023-08-08T22:04:14;98149.44;;;15.45;78.56
70458;BME280;57919;56.194;95.716;2023-08-08T22:14:16;98153.59;;;15.41;78.42
70458;BME280;57919;56.194;95.716;2023-08-08T22:24:18;98155.47;;;15.41;78.66
70458;BME280;57919;56.194;95.716;2023-08-08T22:34:20;98140.50;;;15.51;78.57
70458;BME280;57919;56.194;95.716;2023-08-08T22:44:22;98149.63;;;15.80;78.27
70458;BME280;57919;56.194;95.716;2023-08-08T22:54:24;98154.59;;;16.19;77.67
70458;BME280;57919;56.194;95.716;2023-08-08T23:04:26;98145.34;;;16.41;77.66
70458;BME280;57919;56.194;95.716;2023-08-08T23:14:28;98156.34;;;16.55;77.58
70458;BME280;57919;56.194;95.716;2023-08-08T23:24:30;98165.22;;;16.91;77.18
70458;BME280;57919;56.194;95.716;2023-08-08T23:34:32;98171.94;;;16.89;77.01
70458;BME280;57919;56.194;95.716;2023-08-08T23:44:33;98171.75;;;16.90;77.18
70458;BME280;57919;56.194;95.716;2023-08-08T23:54:35;98172.88;;;17.50;76.23
